Time;durP1;ratioP1;P1;durP2;ratioP2;P2;SDS_P1;SDS_P2;PMS_P1;PMS_P2;Temp;Humidity;BMP_temperature;BMP_pressure;BME280_temperature;BME280_humidity;BME280_pressure;Samples;Min_cycle;Max_cycle;Signal;HPM_P1;HPM_P2
2021/12/03 00:01:17;;;;;;;11.65;8.20;;;;;;;;;;5059747;28;20210;-78
2021/12/03 00:03:44;;;;;;;17.70;9.27;;;;;;;;;;5053434;28;20217;-78
2021/12/03 00:06:13;;;;;;;10.77;6.53;;;;;;;;;;5054238;28;20678;-80
2021/12/03 00:08:41;;;;;;;12.55;8.45;;;;;;;;;;5055437;28;20194;-79
2021/12/03 00:11:11;;;;;;;13.85;8.38;;;;;;;;;;5054980;28;20211;-80
2021/12/03 00:13:38;;;;;;;15.25;8.95;;;;;;;;;;5063929;28;20566;-79
2021/12/03 00:16:06;;;;;;;17.48;10.20;;;;;;;;;;5054751;28;20195;-76
2021/12/03 00:18:33;;;;;;;18.25;9.70;;;;;;;;;;5063481;28;20209;-80
2021/12/03 00:21:03;;;;;;;19.55;11.98;;;;;;;;;;5055679;28;20203;-79
2021/12/03 00:23:30;;;;;;;16.77;8.70;;;;;;;;;;5069745;28;20252;-83
2021/12/03 00:26:00;;;;;;;16.70;9.30;;;;;;;;;;5074363;28;20222;-83
2021/12/03 00:28:27;;;;;;;12.70;9.43;;;;;;;;;;5068453;28;20197;-81
2021/12/03 00:30:54;;;;;;;23.52;11.20;;;;;;;;;;5061927;28;20270;-81
2021/12/03 00:33:21;;;;;;;19.25;9.73;;;;;;;;;;5067619;28;20202;-83
2021/12/03 00:35:49;;;;;;;13.45;9.98;;;;;;;;;;5060245;28;20199;-81
2021/12/03 00:38:16;;;;;;;18.33;11.20;;;;;;;;;;5059289;28;20507;-82
2021/12/03 00:40:44;;;;;;;18.27;10.68;;;;;;;;;;5064875;28;20229;-80
2021/12/03 00:43:12;;;;;;;18.50;10.52;;;;;;;;;;5072980;28;20568;-82
2021/12/03 00:45:42;;;;;;;21.55;11.18;;;;;;;;;;5068478;28;20191;-79
2021/12/03 00:48:09;;;;;;;19.25;11.55;;;;;;;;;;5058416;28;20222;-79
2021/12/03 00:50:37;;;;;;;20.08;11.63;;;;;;;;;;5056400;28;20191;-79
2021/12/03 00:53:04;;;;;;;22.77;14.68;;;;;;;;;;5056766;28;20688;-78
2021/12/03 00:55:32;;;;;;;21.95;13.63;;;;;;;;;;5059321;28;20191;-79
2021/12/03 00:57:59;;;;;;;24.35;12.38;;;;;;;;;;5063493;28;20210;-80
2021/12/03 01:00:30;;;;;;;21.30;12.20;;;;;;;;;;5071710;28;20229;-80
2021/12/03 01:02:58;;;;;;;19.58;12.52;;;;;;;;;;5066053;28;20547;-80
2021/12/03 01:05:25;;;;;;;24.83;13.98;;;;;;;;;;5056266;28;20210;-80
2021/12/03 01:07:52;;;;;;;22.88;14.30;;;;;;;;;;5064109;28;20203;-80
2021/12/03 01:10:19;;;;;;;22.15;13.88;;;;;;;;;;5052653;28;20210;-79
2021/12/03 01:12:46;;;;;;;24.20;12.82;;;;;;;;;;5061987;28;20199;-79
2021/12/03 01:15:15;;;;;;;21.85;14.30;;;;;;;;;;5057001;28;20203;-81
2021/12/03 01:17:44;;;;;;;28.38;14.50;;;;;;;;;;5056084;28;20195;-78
2021/12/03 01:20:13;;;;;;;24.65;14.82;;;;;;;;;;5058442;28;20218;-81
2021/12/03 01:22:40;;;;;;;32.22;15.32;;;;;;;;;;5059593;28;20198;-80
2021/12/03 01:25:09;;;;;;;24.08;14.63;;;;;;;;;;5057135;28;20205;-80
2021/12/03 01:27:36;;;;;;;23.10;14.77;;;;;;;;;;5051879;28;20203;-80
2021/12/03 01:30:04;;;;;;;24.13;14.73;;;;;;;;;;5056702;28;20197;-80
2021/12/03 01:32:31;;;;;;;30.30;15.80;;;;;;;;;;5053108;28;20191;-80
2021/12/03 01:35:00;;;;;;;23.52;14.90;;;;;;;;;;5058634;28;20202;-80
2021/12/03 01:37:27;;;;;;;25.33;14.90;;;;;;;;;;5053555;28;20210;-80
2021/12/03 01:39:54;;;;;;;25.25;16.42;;;;;;;;;;5051947;28;20245;-78
2021/12/03 01:42:21;;;;;;;24.88;16.10;;;;;;;;;;5053073;28;20200;-80
2021/12/03 01:44:48;;;;;;;31.33;15.85;;;;;;;;;;5056850;28;20685;-79
2021/12/03 01:47:15;;;;;;;23.80;15.60;;;;;;;;;;5052163;28;20207;-80
2021/12/03 01:49:43;;;;;;;21.08;15.23;;;;;;;;;;5051095;28;20194;-80
2021/12/03 01:52:11;;;;;;;30.45;17.27;;;;;;;;;;5064689;28;20190;-80
2021/12/03 01:54:38;;;;;;;28.88;17.98;;;;;;;;;;5056331;28;20202;-81
2021/12/03 01:57:05;;;;;;;31.20;16.35;;;;;;;;;;5061914;28;20585;-81
2021/12/03 01:59:33;;;;;;;27.48;15.45;;;;;;;;;;5059722;28;20669;-80
2021/12/03 02:02:00;;;;;;;21.85;15.10;;;;;;;;;;5059784;28;20199;-80
2021/12/03 02:04:27;;;;;;;22.23;17.00;;;;;;;;;;5052164;28;20206;-80
2021/12/03 02:06:54;;;;;;;22.40;15.65;;;;;;;;;;5062120;28;20199;-79
2021/12/03 02:09:22;;;;;;;26.27;16.20;;;;;;;;;;5061430;28;20221;-78
2021/12/03 02:11:49;;;;;;;22.85;16.15;;;;;;;;;;5070863;28;20194;-78
2021/12/03 02:14:16;;;;;;;26.27;15.52;;;;;;;;;;5070410;28;20198;-78
2021/12/03 02:16:45;;;;;;;19.95;15.55;;;;;;;;;;5052119;28;20577;-79
2021/12/03 02:19:13;;;;;;;20.67;16.38;;;;;;;;;;5051772;28;20198;-80
2021/12/03 02:21:41;;;;;;;25.33;13.40;;;;;;;;;;5063693;28;20719;-79
2021/12/03 02:24:08;;;;;;;21.10;14.88;;;;;;;;;;5061528;28;20197;-78
2021/12/03 02:26:35;;;;;;;21.27;14.88;;;;;;;;;;5055837;28;20191;-79
2021/12/03 02:29:03;;;;;;;23.20;14.80;;;;;;;;;;5065896;28;20657;-79
2021/12/03 02:31:30;;;;;;;20.13;16.15;;;;;;;;;;5066520;28;20676;-79
2021/12/03 02:33:57;;;;;;;18.55;14.88;;;;;;;;;;5054957;28;20466;-79
2021/12/03 02:36:24;;;;;;;21.10;14.52;;;;;;;;;;5061036;28;20198;-80
2021/12/03 02:38:53;;;;;;;19.33;13.73;;;;;;;;;;5062286;28;20685;-79
2021/12/03 02:41:20;;;;;;;20.02;15.10;;;;;;;;;;5066148;28;20238;-79
2021/12/03 02:43:48;;;;;;;16.67;13.40;;;;;;;;;;5056420;28;20206;-79
2021/12/03 02:46:15;;;;;;;20.75;14.98;;;;;;;;;;5069358;28;20569;-79
2021/12/03 02:48:42;;;;;;;23.75;17.63;;;;;;;;;;5073872;28;20205;-79
2021/12/03 02:51:10;;;;;;;24.00;15.43;;;;;;;;;;5067132;28;20194;-78
2021/12/03 02:53:38;;;;;;;23.65;15.55;;;;;;;;;;5056778;28;20658;-81
2021/12/03 02:56:07;;;;;;;22.70;14.85;;;;;;;;;;5055653;28;20218;-81
2021/12/03 02:58:34;;;;;;;23.15;16.20;;;;;;;;;;5055382;28;20553;-81
2021/12/03 03:01:01;;;;;;;19.50;15.15;;;;;;;;;;5055399;28;20589;-81
2021/12/03 03:03:29;;;;;;;17.80;13.70;;;;;;;;;;5063362;28;20550;-80
2021/12/03 03:05:57;;;;;;;18.15;14.18;;;;;;;;;;5065449;28;20198;-80
2021/12/03 03:08:24;;;;;;;21.55;15.02;;;;;;;;;;5057748;28;20210;-81
2021/12/03 03:10:51;;;;;;;18.52;13.93;;;;;;;;;;5070921;28;20202;-80
2021/12/03 03:13:19;;;;;;;20.83;14.30;;;;;;;;;;5054744;28;20201;-80
2021/12/03 03:15:47;;;;;;;19.13;13.65;;;;;;;;;;5063193;28;20202;-81
2021/12/03 03:18:15;;;;;;;19.05;14.00;;;;;;;;;;5064547;28;20213;-81
2021/12/03 03:20:43;;;;;;;21.20;14.40;;;;;;;;;;5069415;28;20218;-81
2021/12/03 03:23:12;;;;;;;18.80;14.15;;;;;;;;;;5060381;28;20573;-81
2021/12/03 03:25:39;;;;;;;18.83;14.27;;;;;;;;;;5061359;28;20240;-81
2021/12/03 03:28:06;;;;;;;16.98;12.82;;;;;;;;;;5056140;28;21304;-80
2021/12/03 03:30:35;;;;;;;19.08;13.80;;;;;;;;;;5055127;28;20565;-81
2021/12/03 03:33:02;;;;;;;15.48;11.68;;;;;;;;;;5055111;28;20202;-79
2021/12/03 03:35:30;;;;;;;15.88;11.98;;;;;;;;;;5061399;28;20202;-79
2021/12/03 03:37:57;;;;;;;20.20;13.38;;;;;;;;;;5059268;28;20218;-77
2021/12/03 03:40:24;;;;;;;17.15;13.52;;;;;;;;;;5053674;28;20218;-76
2021/12/03 03:42:51;;;;;;;17.55;13.00;;;;;;;;;;5059114;28;20191;-78
2021/12/03 03:45:19;;;;;;;19.13;13.40;;;;;;;;;;5060699;28;20195;-77
2021/12/03 03:47:48;;;;;;;14.57;11.93;;;;;;;;;;5067444;28;20201;-77
2021/12/03 03:50:16;;;;;;;16.02;13.07;;;;;;;;;;5059962;28;20210;-77
2021/12/03 03:52:43;;;;;;;16.77;13.48;;;;;;;;;;5053888;28;20213;-77
2021/12/03 03:55:11;;;;;;;17.08;13.10;;;;;;;;;;5057967;28;20205;-76
2021/12/03 03:57:38;;;;;;;19.60;14.98;;;;;;;;;;5070808;28;20669;-77
2021/12/03 04:00:07;;;;;;;20.02;13.25;;;;;;;;;;5053507;28;20225;-76
2021/12/03 04:02:34;;;;;;;17.45;14.85;;;;;;;;;;5054480;28;20566;-76
2021/12/03 04:05:03;;;;;;;21.40;13.80;;;;;;;;;;5055771;28;20198;-76
2021/12/03 04:07:30;;;;;;;16.80;12.75;;;;;;;;;;5053575;28;20195;-77
2021/12/03 04:09:57;;;;;;;20.73;14.05;;;;;;;;;;5063776;28;20191;-76
2021/12/03 04:12:24;;;;;;;16.40;12.88;;;;;;;;;;5056238;28;20195;-76
2021/12/03 04:14:51;;;;;;;17.60;12.63;;;;;;;;;;5060466;28;20194;-76
2021/12/03 04:17:18;;;;;;;17.90;12.80;;;;;;;;;;5058287;28;20195;-76
2021/12/03 04:19:45;;;;;;;15.73;12.10;;;;;;;;;;5062484;28;20203;-76
2021/12/03 04:22:18;;;;;;;20.15;12.82;;;;;;;;;;5055114;28;20191;-76
2021/12/03 04:24:45;;;;;;;17.40;13.50;;;;;;;;;;5056480;28;20238;-77
2021/12/03 04:27:12;;;;;;;14.75;12.02;;;;;;;;;;5068776;28;20197;-78
2021/12/03 04:29:39;;;;;;;17.77;12.80;;;;;;;;;;5069447;28;20206;-77
2021/12/03 04:32:08;;;;;;;17.65;13.80;;;;;;;;;;5056998;28;20202;-76
2021/12/03 04:34:35;;;;;;;18.25;14.23;;;;;;;;;;5059500;28;20194;-77
2021/12/03 04:37:02;;;;;;;18.88;14.40;;;;;;;;;;5059400;28;20390;-76
2021/12/03 04:39:30;;;;;;;22.55;14.23;;;;;;;;;;5058724;28;20202;-76
2021/12/03 04:41:58;;;;;;;15.40;12.07;;;;;;;;;;5057668;28;20703;-76
2021/12/03 04:44:25;;;;;;;18.20;15.05;;;;;;;;;;5062949;28;20194;-77
2021/12/03 04:46:52;;;;;;;22.52;16.50;;;;;;;;;;5067832;28;20204;-76
2021/12/03 04:49:19;;;;;;;18.80;14.63;;;;;;;;;;5054518;28;20206;-76
2021/12/03 04:51:46;;;;;;;19.10;13.98;;;;;;;;;;5059744;28;20191;-76
2021/12/03 04:54:13;;;;;;;18.08;14.20;;;;;;;;;;5056120;28;20196;-76
2021/12/03 04:56:42;;;;;;;18.02;13.43;;;;;;;;;;5057511;28;20692;-77
2021/12/03 04:59:09;;;;;;;19.77;13.65;;;;;;;;;;5061533;28;20561;-76
2021/12/03 05:01:38;;;;;;;18.27;14.30;;;;;;;;;;5065374;28;20585;-76
2021/12/03 05:04:05;;;;;;;20.77;14.13;;;;;;;;;;5064821;28;20198;-77
2021/12/03 05:06:52;;;;;;;22.73;14.52;;;;;;;;;;5060468;28;20204;-77
2021/12/03 05:09:19;;;;;;;20.25;13.98;;;;;;;;;;5055807;28;20286;-77
2021/12/03 05:11:48;;;;;;;18.88;14.55;;;;;;;;;;5060589;28;20198;-76
2021/12/03 05:14:15;;;;;;;18.92;13.15;;;;;;;;;;5060877;28;20195;-77
2021/12/03 05:16:45;;;;;;;16.80;13.98;;;;;;;;;;5066048;28;20198;-77
2021/12/03 05:19:12;;;;;;;16.85;12.38;;;;;;;;;;5070778;28;20196;-77
2021/12/03 05:21:39;;;;;;;18.77;14.35;;;;;;;;;;5066216;28;20221;-77
2021/12/03 05:24:06;;;;;;;16.67;13.13;;;;;;;;;;5067413;28;20198;-77
2021/12/03 05:26:34;;;;;;;17.10;11.70;;;;;;;;;;5058054;28;20195;-77
2021/12/03 05:29:03;;;;;;;18.65;12.82;;;;;;;;;;5063913;28;20209;-77
2021/12/03 05:31:31;;;;;;;20.48;13.57;;;;;;;;;;5064453;28;20205;-77
2021/12/03 05:33:58;;;;;;;21.27;13.68;;;;;;;;;;5069779;28;20195;-77
2021/12/03 05:36:25;;;;;;;18.52;13.57;;;;;;;;;;5079085;28;20194;-77
2021/12/03 05:38:52;;;;;;;16.55;12.10;;;;;;;;;;5071182;28;20202;-77
2021/12/03 05:41:19;;;;;;;18.10;12.85;;;;;;;;;;5065450;28;20210;-77
2021/12/03 05:43:47;;;;;;;20.83;14.25;;;;;;;;;;5078495;28;20269;-77
2021/12/03 05:46:15;;;;;;;18.92;13.82;;;;;;;;;;5070983;28;20213;-77
2021/12/03 05:48:42;;;;;;;23.83;15.80;;;;;;;;;;5075126;28;20202;-77
2021/12/03 05:51:10;;;;;;;18.00;12.55;;;;;;;;;;5081824;28;20638;-78
2021/12/03 05:53:37;;;;;;;19.25;12.27;;;;;;;;;;5070786;28;20260;-77
2021/12/03 05:56:04;;;;;;;16.65;11.50;;;;;;;;;;5054336;28;20210;-77
2021/12/03 05:58:32;;;;;;;15.93;12.80;;;;;;;;;;5051082;28;20202;-77
2021/12/03 06:00:59;;;;;;;21.77;13.07;;;;;;;;;;5068978;28;20262;-77
2021/12/03 06:03:27;;;;;;;22.40;12.80;;;;;;;;;;5063170;28;20195;-77
2021/12/03 06:05:54;;;;;;;11.82;10.00;;;;;;;;;;5054546;28;20190;-77
2021/12/03 06:08:21;;;;;;;16.38;11.10;;;;;;;;;;5054798;28;20194;-76
2021/12/03 06:10:48;;;;;;;15.63;12.43;;;;;;;;;;5058062;28;20203;-77
2021/12/03 06:13:15;;;;;;;16.08;10.15;;;;;;;;;;5053436;28;20659;-77
2021/12/03 06:15:43;;;;;;;17.92;13.10;;;;;;;;;;5057067;28;20195;-77
2021/12/03 06:18:10;;;;;;;16.75;13.20;;;;;;;;;;5060666;28;20194;-76
2021/12/03 06:20:38;;;;;;;18.50;11.18;;;;;;;;;;5075662;28;20708;-77
2021/12/03 06:23:05;;;;;;;14.85;11.60;;;;;;;;;;5064722;28;20679;-76
2021/12/03 06:25:33;;;;;;;12.65;10.60;;;;;;;;;;5058364;28;20205;-76
2021/12/03 06:28:00;;;;;;;13.52;9.73;;;;;;;;;;5060182;28;20194;-77
2021/12/03 06:30:27;;;;;;;15.57;11.10;;;;;;;;;;5059996;28;20198;-77
2021/12/03 06:32:55;;;;;;;16.73;11.10;;;;;;;;;;5064896;28;20194;-76
2021/12/03 06:35:22;;;;;;;14.95;11.95;;;;;;;;;;5071763;28;20668;-77
2021/12/03 06:37:51;;;;;;;20.50;11.82;;;;;;;;;;5057723;28;20714;-77
2021/12/03 06:40:20;;;;;;;13.50;10.25;;;;;;;;;;5060647;28;20198;-77
2021/12/03 06:42:47;;;;;;;11.60;9.80;;;;;;;;;;5054564;28;20226;-76
2021/12/03 06:45:15;;;;;;;20.75;11.48;;;;;;;;;;5056695;28;20218;-76
2021/12/03 06:47:42;;;;;;;15.98;11.68;;;;;;;;;;5060918;28;20206;-77
2021/12/03 06:50:12;;;;;;;13.45;9.95;;;;;;;;;;5060889;28;20725;-76
2021/12/03 06:52:41;;;;;;;10.75;9.65;;;;;;;;;;5060131;28;20234;-76
2021/12/03 06:55:14;;;;;;;12.73;11.05;;;;;;;;;;5062281;28;20632;-77
2021/12/03 06:57:43;;;;;;;12.30;9.90;;;;;;;;;;5060684;28;20705;-77
2021/12/03 07:00:11;;;;;;;15.45;11.00;;;;;;;;;;5057574;28;20270;-78
2021/12/03 07:02:38;;;;;;;14.43;10.57;;;;;;;;;;5055669;28;20225;-78
2021/12/03 07:05:06;;;;;;;14.77;9.75;;;;;;;;;;5064694;28;20569;-78
2021/12/03 07:07:33;;;;;;;13.40;9.75;;;;;;;;;;5059727;28;20723;-78
2021/12/03 07:10:00;;;;;;;14.10;10.00;;;;;;;;;;5062493;28;20224;-78
2021/12/03 07:12:29;;;;;;;13.85;9.18;;;;;;;;;;5063434;28;20340;-78
2021/12/03 07:14:57;;;;;;;13.25;9.75;;;;;;;;;;5051568;28;20521;-78
2021/12/03 07:17:25;;;;;;;14.20;10.00;;;;;;;;;;5060820;28;20199;-78
2021/12/03 07:19:55;;;;;;;13.77;9.40;;;;;;;;;;5056992;28;20202;-78
2021/12/03 07:22:23;;;;;;;10.82;9.23;;;;;;;;;;5058773;28;20663;-78
2021/12/03 07:24:50;;;;;;;12.63;9.50;;;;;;;;;;5056474;28;20252;-78
2021/12/03 07:27:17;;;;;;;11.55;9.52;;;;;;;;;;5063151;28;20190;-78
2021/12/03 07:29:47;;;;;;;11.82;9.00;;;;;;;;;;5055004;28;20202;-78
2021/12/03 07:32:14;;;;;;;12.25;8.65;;;;;;;;;;5056552;28;20202;-78
2021/12/03 07:34:41;;;;;;;15.05;10.85;;;;;;;;;;5059478;28;20195;-78
2021/12/03 07:37:08;;;;;;;11.75;9.10;;;;;;;;;;5063110;28;20194;-77
2021/12/03 07:39:35;;;;;;;16.15;11.15;;;;;;;;;;5062162;28;20207;-76
2021/12/03 07:42:03;;;;;;;14.77;10.93;;;;;;;;;;5057933;28;20217;-77
2021/12/03 07:44:30;;;;;;;14.85;9.13;;;;;;;;;;5060185;28;20705;-77
2021/12/03 07:46:58;;;;;;;15.55;10.50;;;;;;;;;;5059923;28;20655;-78
2021/12/03 07:49:26;;;;;;;16.73;11.55;;;;;;;;;;5069481;28;20202;-77
2021/12/03 07:51:54;;;;;;;14.13;10.45;;;;;;;;;;5072602;28;20190;-78
2021/12/03 07:54:21;;;;;;;12.32;9.50;;;;;;;;;;5061671;28;20202;-78
2021/12/03 07:56:48;;;;;;;13.35;11.30;;;;;;;;;;5053906;28;20203;-77
2021/12/03 07:59:15;;;;;;;16.45;12.10;;;;;;;;;;5055949;28;20214;-78
2021/12/03 08:01:42;;;;;;;16.80;10.88;;;;;;;;;;5064906;28;20226;-78
2021/12/03 08:04:11;;;;;;;15.70;10.27;;;;;;;;;;5060813;28;20201;-77
2021/12/03 08:06:40;;;;;;;13.82;10.05;;;;;;;;;;5054174;28;20202;-77
2021/12/03 08:09:07;;;;;;;13.25;8.57;;;;;;;;;;5056163;28;20246;-77
2021/12/03 08:11:34;;;;;;;12.82;8.82;;;;;;;;;;5063158;28;20191;-79
2021/12/03 08:14:01;;;;;;;14.35;10.57;;;;;;;;;;5065067;28;20201;-79
2021/12/03 08:16:28;;;;;;;15.73;9.82;;;;;;;;;;5057720;28;20202;-79
2021/12/03 08:18:55;;;;;;;13.05;9.48;;;;;;;;;;5059499;28;20206;-79
2021/12/03 08:21:24;;;;;;;16.08;10.02;;;;;;;;;;5062657;28;20218;-80
2021/12/03 08:23:51;;;;;;;14.18;9.80;;;;;;;;;;5065120;28;20198;-79
2021/12/03 08:26:18;;;;;;;11.70;9.88;;;;;;;;;;5060758;28;20197;-79
2021/12/03 08:28:45;;;;;;;15.88;11.15;;;;;;;;;;5057767;28;20597;-79
2021/12/03 08:31:14;;;;;;;12.63;10.73;;;;;;;;;;5060233;28;20204;-79
2021/12/03 08:33:41;;;;;;;12.85;8.73;;;;;;;;;;5054012;28;20190;-78
2021/12/03 08:36:09;;;;;;;12.02;9.55;;;;;;;;;;5063315;28;20201;-77
2021/12/03 08:38:37;;;;;;;17.27;10.18;;;;;;;;;;5063228;28;20199;-75
2021/12/03 08:41:05;;;;;;;18.20;9.00;;;;;;;;;;5060952;28;20571;-77
2021/12/03 08:43:32;;;;;;;12.80;9.85;;;;;;;;;;5059978;28;20191;-76
2021/12/03 08:46:08;;;;;;;12.68;9.02;;;;;;;;;;5052890;28;20213;-78
2021/12/03 08:48:38;;;;;;;17.15;10.38;;;;;;;;;;5058608;28;20289;-78
2021/12/03 08:51:21;;;;;;;12.90;9.23;;;;;;;;;;5055445;28;20589;-78
2021/12/03 08:56:34;;;;;;;13.02;8.95;;;;;;;;;;5059890;28;20260;-79
2021/12/03 08:59:01;;;;;;;16.25;10.20;;;;;;;;;;5067947;28;20198;-79
2021/12/03 09:01:28;;;;;;;15.45;8.93;;;;;;;;;;5057384;28;20218;-79
2021/12/03 09:03:55;;;;;;;11.18;8.73;;;;;;;;;;5057256;28;20210;-79
2021/12/03 09:06:22;;;;;;;16.45;9.02;;;;;;;;;;5061905;28;20662;-78
2021/12/03 09:08:50;;;;;;;14.90;10.55;;;;;;;;;;5052144;28;20203;-79
2021/12/03 09:11:18;;;;;;;13.73;10.02;;;;;;;;;;5052580;28;20198;-79
2021/12/03 09:13:47;;;;;;;14.55;9.80;;;;;;;;;;5053233;28;20199;-79
2021/12/03 09:16:17;;;;;;;13.98;9.05;;;;;;;;;;5062651;28;20286;-79
2021/12/03 09:18:45;;;;;;;14.82;8.75;;;;;;;;;;5050022;28;20650;-79
2021/12/03 09:21:17;;;;;;;11.75;8.52;;;;;;;;;;5056530;28;20194;-79
2021/12/03 09:23:56;;;;;;;11.90;8.52;;;;;;;;;;5057649;28;20225;-78
2021/12/03 09:26:26;;;;;;;11.75;7.78;;;;;;;;;;5056107;28;20685;-79
2021/12/03 09:28:59;;;;;;;11.07;7.25;;;;;;;;;;5060180;28;20605;-80
2021/12/03 09:31:27;;;;;;;14.45;7.97;;;;;;;;;;5066939;28;20285;-80
2021/12/03 09:33:55;;;;;;;21.73;8.05;;;;;;;;;;5065487;28;20209;-81
2021/12/03 09:36:23;;;;;;;11.00;6.32;;;;;;;;;;5061930;28;20565;-80
2021/12/03 09:38:50;;;;;;;10.35;6.65;;;;;;;;;;5055301;28;20203;-81
2021/12/03 09:41:18;;;;;;;14.38;6.93;;;;;;;;;;5057620;28;20605;-80
2021/12/03 09:43:48;;;;;;;9.65;6.28;;;;;;;;;;5054181;28;20195;-81
2021/12/03 09:46:18;;;;;;;8.77;5.38;;;;;;;;;;5052052;28;20198;-81
2021/12/03 09:48:57;;;;;;;9.52;6.05;;;;;;;;;;5061831;28;20194;-81
2021/12/03 09:51:25;;;;;;;7.90;5.68;;;;;;;;;;5062722;28;20195;-81
2021/12/03 09:54:16;;;;;;;8.93;4.78;;;;;;;;;;5052475;28;20205;-81
2021/12/03 09:56:44;;;;;;;10.00;5.88;;;;;;;;;;5054872;28;20733;-82
2021/12/03 10:02:05;;;;;;;13.50;6.43;;;;;;;;;;5056192;28;20279;-80
2021/12/03 10:04:47;;;;;;;8.88;4.90;;;;;;;;;;5052535;28;20607;-80
2021/12/03 10:10:43;;;;;;;11.32;5.95;;;;;;;;;;5052616;28;20197;-80
2021/12/03 10:13:15;;;;;;;11.15;5.90;;;;;;;;;;5056358;28;20211;-80
2021/12/03 10:15:54;;;;;;;10.98;5.03;;;;;;;;;;5053146;28;20616;-80
2021/12/03 10:18:32;;;;;;;9.35;4.72;;;;;;;;;;5060880;28;20201;-81
2021/12/03 10:21:05;;;;;;;6.65;4.90;;;;;;;;;;5051689;28;20603;-80
2021/12/03 10:29:12;;;;;;;9.43;4.95;;;;;;;;;;5058217;28;20240;-80
2021/12/03 10:34:44;;;;;;;8.70;4.10;;;;;;;;;;5056011;28;20665;-75
2021/12/03 10:43:21;;;;;;;5.00;3.55;;;;;;;;;;5049342;28;20579;-78
2021/12/03 10:46:05;;;;;;;12.60;4.22;;;;;;;;;;5058130;28;20202;-77
2021/12/03 10:48:42;;;;;;;8.57;3.35;;;;;;;;;;5057750;28;20202;-77
2021/12/03 10:51:27;;;;;;;7.72;3.88;;;;;;;;;;5054863;28;20198;-77
2021/12/03 10:54:01;;;;;;;9.68;3.60;;;;;;;;;;5056360;28;20203;-77
2021/12/03 11:14:31;;;;;;;9.90;2.97;;;;;;;;;;5063096;28;20596;-77
2021/12/03 11:33:59;;;;;;;5.93;3.92;;;;;;;;;;5061389;28;20565;-77
2021/12/03 11:39:56;;;;;;;11.20;3.00;;;;;;;;;;5066680;28;20666;-78
2021/12/03 12:27:01;;;;;;;3.65;2.30;;;;;;;;;;5061764;28;20229;-78
2021/12/03 13:22:57;;;;;;;5.43;2.53;;;;;;;;;;5048951;28;20653;-77
2021/12/03 14:02:30;;;;;;;7.13;3.20;;;;;;;;;;5050296;28;20201;-77
2021/12/03 14:05:13;;;;;;;5.50;2.60;;;;;;;;;;5050756;28;20230;-77
2021/12/03 14:36:32;;;;;;;4.07;2.60;;;;;;;;;;5059365;28;20611;-77
2021/12/03 14:39:22;;;;;;;6.22;2.72;;;;;;;;;;5063129;28;20525;-77
2021/12/03 14:42:23;;;;;;;9.13;3.13;;;;;;;;;;5059304;28;20389;-77
2021/12/03 14:44:59;;;;;;;4.65;3.22;;;;;;;;;;5064597;28;20220;-77
2021/12/03 14:47:49;;;;;;;6.78;2.88;;;;;;;;;;5069629;28;20205;-77
2021/12/03 14:53:18;;;;;;;3.03;1.70;;;;;;;;;;5050157;28;20562;-77
2021/12/03 14:55:48;;;;;;;3.58;2.40;;;;;;;;;;5058669;28;20198;-77
2021/12/03 14:58:19;;;;;;;6.75;2.20;;;;;;;;;;5064038;28;20203;-77
2021/12/03 15:00:53;;;;;;;2.47;2.13;;;;;;;;;;5062193;28;20709;-77
2021/12/03 15:03:32;;;;;;;3.28;2.10;;;;;;;;;;5056546;28;20274;-77
2021/12/03 15:06:17;;;;;;;5.18;2.63;;;;;;;;;;5058321;28;20202;-77
2021/12/03 15:08:50;;;;;;;9.75;2.92;;;;;;;;;;5061840;28;20198;-77
2021/12/03 15:25:30;;;;;;;2.85;1.83;;;;;;;;;;5096768;28;20220;-76
2021/12/03 15:30:53;;;;;;;4.70;1.67;;;;;;;;;;5108830;28;20191;-76
2021/12/03 15:33:34;;;;;;;2.47;1.88;;;;;;;;;;5107378;28;20204;-76
2021/12/03 15:36:04;;;;;;;7.38;2.00;;;;;;;;;;5108228;28;20265;-76
2021/12/03 15:38:58;;;;;;;3.42;2.40;;;;;;;;;;5100615;28;20665;-76
2021/12/03 16:03:56;;;;;;;2.13;1.90;;;;;;;;;;5089992;28;20246;-76
2021/12/03 16:06:32;;;;;;;2.35;2.15;;;;;;;;;;5087432;28;20235;-76
2021/12/03 16:09:07;;;;;;;1.98;1.67;;;;;;;;;;5079162;28;20193;-76
2021/12/03 16:11:41;;;;;;;4.40;2.15;;;;;;;;;;5087457;28;20288;-76
2021/12/03 16:45:11;;;;;;;2.55;1.90;;;;;;;;;;5073825;28;20205;-77
2021/12/03 16:48:02;;;;;;;2.65;1.85;;;;;;;;;;5065521;28;20294;-76
2021/12/03 16:53:20;;;;;;;2.38;1.75;;;;;;;;;;5067942;28;20213;-75
2021/12/03 16:55:58;;;;;;;5.65;2.55;;;;;;;;;;5064674;28;20685;-75
2021/12/03 16:58:26;;;;;;;3.25;2.03;;;;;;;;;;5071539;28;20201;-75
2021/12/03 17:00:58;;;;;;;2.25;2.05;;;;;;;;;;5072562;28;20308;-75
2021/12/03 17:03:30;;;;;;;3.33;2.80;;;;;;;;;;5070108;28;20201;-75
2021/12/03 17:09:05;;;;;;;1.63;1.35;;;;;;;;;;5063637;28;20724;-75
2021/12/03 17:11:59;;;;;;;1.67;1.50;;;;;;;;;;5053795;28;20202;-76
2021/12/03 17:45:33;;;;;;;2.15;1.95;;;;;;;;;;5048810;27;20190;-75
2021/12/03 17:48:13;;;;;;;3.25;2.50;;;;;;;;;;5039571;28;20278;-75
2021/12/03 17:56:09;;;;;;;2.40;2.10;;;;;;;;;;5108966;27;20195;-75
2021/12/03 17:58:38;;;;;;;1.80;1.70;;;;;;;;;;5066154;27;20195;-75
2021/12/03 18:01:10;;;;;;;2.28;2.08;;;;;;;;;;5038904;28;20574;-75
2021/12/03 18:03:45;;;;;;;2.90;1.90;;;;;;;;;;5042660;28;20199;-75
2021/12/03 18:09:10;;;;;;;4.47;1.73;;;;;;;;;;5017252;28;20202;-75
2021/12/03 18:12:01;;;;;;;3.05;2.35;;;;;;;;;;5031434;28;20199;-75
2021/12/03 18:53:14;;;;;;;2.35;2.00;;;;;;;;;;5083089;27;20381;-76
2021/12/03 18:55:44;;;;;;;3.13;2.70;;;;;;;;;;5027200;28;20574;-76
2021/12/03 18:58:11;;;;;;;3.25;2.28;;;;;;;;;;5033075;28;20196;-76
2021/12/03 19:00:41;;;;;;;3.17;2.30;;;;;;;;;;5023890;28;20218;-76
2021/12/03 19:03:17;;;;;;;3.25;2.50;;;;;;;;;;5031531;27;20191;-76
2021/12/03 19:05:55;;;;;;;2.80;2.53;;;;;;;;;;5085959;27;20268;-76
2021/12/03 19:08:33;;;;;;;2.67;1.85;;;;;;;;;;5095660;27;20203;-75
2021/12/03 19:11:05;;;;;;;2.30;2.10;;;;;;;;;;5044120;27;20229;-76
2021/12/03 19:13:38;;;;;;;2.13;2.03;;;;;;;;;;5030582;27;20286;-75
2021/12/03 19:16:07;;;;;;;4.35;2.88;;;;;;;;;;5044213;27;20204;-75
2021/12/03 19:18:35;;;;;;;2.53;2.33;;;;;;;;;;5026566;28;20195;-75
2021/12/03 19:21:07;;;;;;;3.42;2.15;;;;;;;;;;5067660;27;20600;-75
2021/12/03 19:23:36;;;;;;;1.98;1.88;;;;;;;;;;5022070;27;20221;-75
2021/12/03 19:26:03;;;;;;;2.47;1.95;;;;;;;;;;5044758;27;20204;-75
2021/12/03 19:28:31;;;;;;;3.15;2.58;;;;;;;;;;5024487;27;20227;-76
2021/12/03 19:30:58;;;;;;;3.05;2.28;;;;;;;;;;5022390;27;20231;-75
2021/12/03 19:33:26;;;;;;;2.22;2.03;;;;;;;;;;5042950;27;20203;-75
2021/12/03 19:35:53;;;;;;;2.30;1.90;;;;;;;;;;5036587;27;20192;-75
2021/12/03 19:38:20;;;;;;;4.07;2.20;;;;;;;;;;5027423;28;20208;-76
2021/12/03 19:40:55;;;;;;;3.00;2.38;;;;;;;;;;5026229;27;20196;-77
2021/12/03 19:43:26;;;;;;;2.42;2.22;;;;;;;;;;5062092;27;20650;-76
2021/12/03 19:45:58;;;;;;;3.97;2.42;;;;;;;;;;5017935;27;20265;-77
2021/12/03 19:48:33;;;;;;;2.00;1.70;;;;;;;;;;5038434;27;20589;-77
2021/12/03 19:51:00;;;;;;;2.58;2.05;;;;;;;;;;5074740;27;20732;-77
2021/12/03 19:53:30;;;;;;;2.83;2.28;;;;;;;;;;5021445;28;20283;-77
2021/12/03 19:55:58;;;;;;;2.45;2.25;;;;;;;;;;5024582;27;20199;-76
2021/12/03 19:58:25;;;;;;;1.83;1.70;;;;;;;;;;5061253;27;20215;-77
2021/12/03 20:00:52;;;;;;;1.77;1.67;;;;;;;;;;5060168;27;20218;-76
2021/12/03 20:03:20;;;;;;;2.28;2.08;;;;;;;;;;5027197;28;20211;-76
2021/12/03 20:05:47;;;;;;;2.83;1.92;;;;;;;;;;5023908;28;20291;-76
2021/12/03 20:08:14;;;;;;;2.20;2.00;;;;;;;;;;5025832;27;20200;-76
2021/12/03 20:10:43;;;;;;;2.42;2.15;;;;;;;;;;5023683;27;20218;-76
2021/12/03 20:13:12;;;;;;;1.92;1.73;;;;;;;;;;5055889;27;20226;-76
2021/12/03 20:15:46;;;;;;;2.30;1.88;;;;;;;;;;5064904;27;20198;-76
2021/12/03 20:18:24;;;;;;;1.67;1.58;;;;;;;;;;5029971;28;20197;-77
2021/12/03 20:20:51;;;;;;;3.47;1.95;;;;;;;;;;5025440;28;20294;-76
2021/12/03 20:23:31;;;;;;;1.90;1.70;;;;;;;;;;5016908;28;20211;-76
2021/12/03 20:26:22;;;;;;;2.00;1.90;;;;;;;;;;5027465;28;20202;-76
2021/12/03 20:28:54;;;;;;;2.97;1.60;;;;;;;;;;5071947;27;20734;-76
2021/12/03 20:31:23;;;;;;;2.22;2.00;;;;;;;;;;5072192;27;20258;-76
2021/12/03 20:36:49;;;;;;;2.67;1.77;;;;;;;;;;5027503;28;20202;-77
2021/12/03 20:39:19;;;;;;;1.80;1.70;;;;;;;;;;5015245;28;20207;-74
2021/12/03 20:41:58;;;;;;;2.60;2.05;;;;;;;;;;5020940;28;20196;-75
2021/12/03 20:50:39;;;;;;;2.28;2.03;;;;;;;;;;4985686;28;20674;-76
2021/12/03 20:53:18;;;;;;;2.45;1.60;;;;;;;;;;5018309;28;20204;-76
2021/12/03 20:59:34;;;;;;;1.58;1.48;;;;;;;;;;5046917;27;20338;-75
2021/12/03 21:10:21;;;;;;;1.48;1.30;;;;;;;;;;5000258;28;20328;-76
2021/12/03 21:12:51;;;;;;;4.90;1.90;;;;;;;;;;5045133;27;20665;-76
2021/12/03 21:15:23;;;;;;;2.15;1.58;;;;;;;;;;5029897;27;20612;-75
2021/12/03 21:18:05;;;;;;;1.70;1.60;;;;;;;;;;5024409;28;20320;-75
2021/12/03 21:20:37;;;;;;;3.08;1.65;;;;;;;;;;5022434;28;20200;-76
2021/12/03 21:23:07;;;;;;;1.58;1.48;;;;;;;;;;5024196;28;20254;-75
2021/12/03 21:25:35;;;;;;;2.50;2.13;;;;;;;;;;5022918;28;20196;-75
2021/12/03 21:28:15;;;;;;;2.55;2.35;;;;;;;;;;5022124;28;20215;-75